Últimos artigos:
MSK144, FT8… using an IC-9700 and WSJT-X
Resolvendo um problema de áudio no GNU Radio
Converter um número Real para o formato binário em vírgula flutuante segundo a Norma IEEE-754
VirtualBox sobre Debian 10 (buster) não encontra dispositivos USB
Falta de som no Morse Runner em Linux?
Touchpad tapping, em Debian Buster (10)
Últimas fotos:
Últimos METARs:
LPAZ 262130Z 22011KT 9999 FEW021 21/17 Q10...
LPFR 262130Z VRB02KT CAVOK 16/13 Q1020=
LPHR 262030Z 23016KT 9999 SCT010 BKN020 22...
LPLA 262100Z /////KT 9999 SCT020 SCT028 21...
LPMA 262130Z 01008KT 320V040 9999 SCT016 2...
LPPD 262130Z 22011KT 9999 FEW014 BKN018 21...
LPPR 262130Z 00000KT CAVOK 14/11 Q1022=
LPPS 262130Z 02011KT 9999 SCT015 20/15 Q10...
LPPT 262130Z 32007KT CAVOK 18/10 Q1021=
Últimos QSOs:
2021/08/24-22:06 70cm EA8TL (JORGE)
2021/08/24-21:44 2m EA7BW (JUAN)
2021/08/24-21:43 2m CN8JQ (MOHAMED)
2021/08/24-21:42 2m EA8HB (HUGO)
2021/08/24-21:40 2m F4DXV (JEROME)
2021/08/24-21:39 2m EA1FID (PABLO)
  UTC

Fatal error: Allowed memory size of 268435456 bytes exhausted (tried to allocate 16777216 bytes) in /web/htdocs/www.airlomba.net/home/index.php on line 266